地図

経路データ

SID SEASON NUMBER BASIN SUBBASIN NAME ISO_TIME NATURE LAT LON WMO_WIND WMO_PRES WMO_AGENCY TRACK_TYPE DIST2LAND LANDFALL IFLAG USA_AGENCY USA_ATCF_ID USA_LAT USA_LON USA_RECORD USA_STATUS USA_WIND USA_PRES USA_SSHS USA_R34_NE USA_R34_SE USA_R34_SW USA_R34_NW USA_R50_NE USA_R50_SE USA_R50_SW USA_R50_NW USA_R64_NE USA_R64_SE USA_R64_SW USA_R64_NW USA_POCI USA_ROCI USA_RMW USA_EYE TOKYO_LAT TOKYO_LON TOKYO_GRADE TOKYO_WIND TOKYO_PRES TOKYO_R50_DIR TOKYO_R50_LONG TOKYO_R50_SHORT TOKYO_R30_DIR TOKYO_R30_LONG TOKYO_R30_SHORT TOKYO_LAND CMA_LAT CMA_LON CMA_CAT CMA_WIND CMA_PRES HKO_LAT HKO_LON HKO_CAT HKO_WIND HKO_PRES NEWDELHI_LAT NEWDELHI_LON NEWDELHI_GRADE NEWDELHI_WIND NEWDELHI_PRES NEWDELHI_CI NEWDELHI_DP NEWDELHI_POCI REUNION_LAT REUNION_LON REUNION_TYPE REUNION_WIND REUNION_PRES REUNION_TNUM REUNION_CI REUNION_RMW REUNION_R34_NE REUNION_R34_SE REUNION_R34_SW REUNION_R34_NW REUNION_R50_NE REUNION_R50_SE REUNION_R50_SW REUNION_R50_NW REUNION_R64_NE REUNION_R64_SE REUNION_R64_SW REUNION_R64_NW BOM_LAT BOM_LON BOM_TYPE BOM_WIND BOM_PRES BOM_TNUM BOM_CI BOM_RMW BOM_R34_NE BOM_R34_SE BOM_R34_SW BOM_R34_NW BOM_R50_NE BOM_R50_SE BOM_R50_SW BOM_R50_NW BOM_R64_NE BOM_R64_SE BOM_R64_SW BOM_R64_NW BOM_ROCI BOM_POCI BOM_EYE BOM_POS_METHOD BOM_PRES_METHOD NADI_LAT NADI_LON NADI_CAT NADI_WIND NADI_PRES WELLINGTON_LAT WELLINGTON_LON WELLINGTON_WIND WELLINGTON_PRES DS824_LAT DS824_LON DS824_STAGE DS824_WIND DS824_PRES TD9636_LAT TD9636_LON TD9636_STAGE TD9636_WIND TD9636_PRES TD9635_LAT TD9635_LON TD9635_WIND TD9635_PRES TD9635_ROCI NEUMANN_LAT NEUMANN_LON NEUMANN_CLASS NEUMANN_WIND NEUMANN_PRES MLC_LAT MLC_LON MLC_CLASS MLC_WIND MLC_PRES USA_GUST BOM_GUST BOM_GUST_PER REUNION_GUST REUNION_GUST_PER USA_SEAHGT USA_SEARAD_NE USA_SEARAD_SE USA_SEARAD_SW USA_SEARAD_NW STORM_SPEED STORM_DIR
1967187N11345 1967 48 NA NA NOT_NAMED 1967-07-05 12:00:00 TS 11.0000 -15.1000 hurdat_atl main 0 0 O_____________ hurdat_atl AL051967 11.0000 -15.1000 TD -1 10 276
1967187N11345 1967 48 NA NA NOT_NAMED 1967-07-05 15:00:00 TS 11.0527 -15.5999 main 24 24 P_____________ AL051967 11.0527 -15.5999 TD -1 10 276
1967187N11345 1967 48 NA NA NOT_NAMED 1967-07-05 18:00:00 TS 11.1000 -16.1000 hurdat_atl main 68 68 O_____________ hurdat_atl AL051967 11.1000 -16.1000 TD -1 10 275
1967187N11345 1967 48 NA NA NOT_NAMED 1967-07-05 21:00:00 TS 11.1424 -16.6001 main 93 93 P_____________ AL051967 11.1424 -16.6001 TD -1 10 276
1967187N11345 1967 48 NA NA NOT_NAMED 1967-07-06 00:00:00 TS 11.2000 -17.1000 hurdat_atl main 125 125 O_____________ hurdat_atl AL051967 11.2000 -17.1000 TD -1 10 279
1967187N11345 1967 48 NA NA NOT_NAMED 1967-07-06 03:00:00 TS 11.2922 -17.5700 main 150 150 P_____________ AL051967 11.2922 -17.5700 TD -1 10 282
1967187N11345 1967 48 NA NA NOT_NAMED 1967-07-06 06:00:00 TS 11.4000 -18.1000 hurdat_atl main 180 180 O_____________ hurdat_atl AL051967 11.4000 -18.1000 TD -1 12 280
1967187N11345 1967 48 NA NA NOT_NAMED 1967-07-06 09:00:00 TS 11.5001 -18.7850 main 239 239 P_____________ AL051967 11.5001 -18.7850 TD -1 14 278
1967187N11345 1967 48 NA NA NOT_NAMED 1967-07-06 12:00:00 TS 11.6000 -19.5000 hurdat_atl main 307 307 O_____________ hurdat_atl AL051967 11.6000 -19.5000 TD -1 13 279
1967187N11345 1967 48 NA NA NOT_NAMED 1967-07-06 15:00:00 TS 11.6997 -20.1076 main 367 367 P_____________ AL051967 11.6997 -20.1076 TD -1 12 280
1967187N11345 1967 48 NA NA NOT_NAMED 1967-07-06 18:00:00 TS 11.8000 -20.7000 hurdat_atl main 429 429 O_____________ hurdat_atl AL051967 11.8000 -20.7000 TD -1 12 280
1967187N11345 1967 48 NA NA NOT_NAMED 1967-07-06 21:00:00 TS 11.9149 -21.3424 main 492 492 P_____________ AL051967 11.9149 -21.3424 TD -1 13 279
1967187N11345 1967 48 NA NA NOT_NAMED 1967-07-07 00:00:00 TS 12.0000 -22.0000 hurdat_atl main 567 567 O_____________ hurdat_atl AL051967 12.0000 -22.0000 TD -1 13 274
1967187N11345 1967 48 NA NA NOT_NAMED 1967-07-07 03:00:00 TS 12.0149 -22.6576 main 638 638 P_____________ AL051967 12.0149 -22.6576 TD -1 13 270
1967187N11345 1967 48 NA NA NOT_NAMED 1967-07-07 06:00:00 TS 12.0000 -23.3000 hurdat_atl main 696 696 O_____________ hurdat_atl AL051967 12.0000 -23.3000 TD -1 12 269
1967187N11345 1967 48 NA NA NOT_NAMED 1967-07-07 09:00:00 TS 11.9999 -23.9225 main 755 755 P_____________ AL051967 11.9999 -23.9225 TD -1 12 270
1967187N11345 1967 48 NA NA NOT_NAMED 1967-07-07 12:00:00 TS 12.0000 -24.5000 hurdat_atl main 815 815 O_____________ hurdat_atl AL051967 12.0000 -24.5000 TD -1 10 270
1967187N11345 1967 48 NA NA NOT_NAMED 1967-07-07 15:00:00 TS 11.9996 -24.9850 main 866 866 P_____________ AL051967 11.9996 -24.9850 TD -1 10 270
1967187N11345 1967 48 NA NA NOT_NAMED 1967-07-07 18:00:00 TS 12.0000 -25.5000 hurdat_atl main 917 917 O_____________ hurdat_atl AL051967 12.0000 -25.5000 TD -1 12 270
1967187N11345 1967 48 NA NA NOT_NAMED 1967-07-07 21:00:00 TS 12.0001 -26.1850 main 988 988 P_____________ AL051967 12.0001 -26.1850 TD -1 14 270
1967187N11345 1967 48 NA NA NOT_NAMED 1967-07-08 00:00:00 TS 12.0000 -26.9000 hurdat_atl main 1061 1061 O_____________ hurdat_atl AL051967 12.0000 -26.9000 TD -1 13 270
1967187N11345 1967 48 NA NA NOT_NAMED 1967-07-08 03:00:00 TS 11.9998 -27.5150 main 1123 1123 P_____________ AL051967 11.9998 -27.5150 TD -1 12 270
1967187N11345 1967 48 NA NA NOT_NAMED 1967-07-08 06:00:00 TS 12.0000 -28.1000 hurdat_atl main 1186 1186 O_____________ hurdat_atl AL051967 12.0000 -28.1000 TD -1 12 270
1967187N11345 1967 48 NA NA NOT_NAMED 1967-07-08 09:00:00 TS 12.0000 -28.7300 main 1249 1249 P_____________ AL051967 12.0000 -28.7300 TD -1 12 270
1967187N11345 1967 48 NA NA NOT_NAMED 1967-07-08 12:00:00 TS 12.0000 -29.3000 hurdat_atl main 1312 1312 O_____________ hurdat_atl AL051967 12.0000 -29.3000 TD -1 10 270
1967187N11345 1967 48 NA NA NOT_NAMED 1967-07-08 15:00:00 TS 11.9997 -29.7075 main 1354 1354 P_____________ AL051967 11.9997 -29.7075 TD -1 8 270
1967187N11345 1967 48 NA NA NOT_NAMED 1967-07-08 18:00:00 TS 12.0000 -30.1000 hurdat_atl main 1396 1396 O_____________ hurdat_atl AL051967 12.0000 -30.1000 TD -1 9 270
1967187N11345 1967 48 NA NA NOT_NAMED 1967-07-08 21:00:00 TS 11.9998 -30.5900 main 1449 1449 P_____________ AL051967 11.9998 -30.5900 TD -1 11 270
1967187N11345 1967 48 NA NA NOT_NAMED 1967-07-09 00:00:00 TS 12.0000 -31.2000 hurdat_atl main 1513 1513 O_____________ hurdat_atl AL051967 12.0000 -31.2000 TD -1 14 270
1967187N11345 1967 48 NA NA NOT_NAMED 1967-07-09 03:00:00 TS 12.0003 -32.0000 main 1598 1598 P_____________ AL051967 12.0003 -32.0000 TD -1 16 270
1967187N11345 1967 48 NA NA NOT_NAMED 1967-07-09 06:00:00 TS 12.0000 -32.8000 hurdat_atl main 1683 1683 O_____________ hurdat_atl AL051967 12.0000 -32.8000 TD -1 14 270
1967187N11345 1967 48 NA NA NOT_NAMED 1967-07-09 09:00:00 TS 11.9998 -33.4125 main 1747 1747 P_____________ AL051967 11.9998 -33.4125 TD -1 11 270
1967187N11345 1967 48 NA NA NOT_NAMED 1967-07-09 12:00:00 TS 12.0000 -33.9000 hurdat_atl main 1792 O_____________ hurdat_atl AL051967 12.0000 -33.9000 TD -1 10 270

IBTrACS Databaseについて

本データベースは、米国NOAAが公開する1842年以降の世界の熱帯低気圧のベストトラックデータアーカイブInternational Best Track Archive for Climate Stewardship (IBTrACS)を、ウェブで閲覧しやすい形式に変換したものです。

最終更新日:2021-12-08